createdAt,value
2022-10-23T00:01:28.387Z,101198.81
2022-10-23T00:04:07.276Z,101197.88
2022-10-23T00:06:35.261Z,101204.72
2022-10-23T00:09:02.757Z,101198.63
2022-10-23T00:11:30.752Z,101209.94
2022-10-23T00:13:59.783Z,101208.19
2022-10-23T00:16:27.112Z,101202.09
2022-10-23T00:18:53.534Z,101208.25
2022-10-23T00:21:20.690Z,101203.09
2022-10-23T00:23:47.150Z,101195.38
2022-10-23T00:26:16.847Z,101201.53
2022-10-23T00:28:44.855Z,101208.53
2022-10-23T00:31:12.266Z,101207.63
2022-10-23T00:33:38.778Z,101211.06
2022-10-23T00:36:08.299Z,101211.13
2022-10-23T00:38:36.005Z,101207.63
2022-10-23T00:41:02.714Z,101215.41
2022-10-23T00:43:30.821Z,101216.41
2022-10-23T00:45:57.926Z,101209.47
2022-10-23T00:48:25.910Z,101206.94
2022-10-23T00:50:52.831Z,101204.38
2022-10-23T00:53:20.969Z,101199.19
2022-10-23T00:55:50.413Z,101203.59
2022-10-23T00:58:19.236Z,101204.44
2022-10-23T01:00:51.804Z,101207.88
2022-10-23T01:03:20.359Z,101216.44
2022-10-23T01:06:05.495Z,101212.84
2022-10-23T01:08:38.780Z,101214.50
2022-10-23T01:11:12.090Z,101212.75
2022-10-23T01:13:54.842Z,101216.28
2022-10-23T01:16:28.644Z,101214.47
2022-10-23T01:19:07.130Z,101207.50
2022-10-23T01:22:00.260Z,101199.72
2022-10-23T01:24:45.803Z,101203.31
2022-10-23T01:27:24.400Z,101204.19
2022-10-23T01:30:06.339Z,101195.47
2022-10-23T01:32:45.289Z,101198.91
2022-10-23T01:35:16.552Z,101203.31
2022-10-23T01:38:03.418Z,101198.97
2022-10-23T01:40:35.896Z,101199.03
2022-10-23T01:43:09.642Z,101197.19
2022-10-23T01:45:40.964Z,101207.63
2022-10-23T01:48:12.525Z,101205.91
2022-10-23T01:50:41.842Z,101211.94
2022-10-23T01:53:08.499Z,101207.63
2022-10-23T01:55:38.146Z,101209.41
2022-10-23T01:58:08.326Z,101204.16
2022-10-23T02:00:39.039Z,101212.84
2022-10-23T02:03:07.711Z,101208.47
2022-10-23T02:05:34.212Z,101204.13
2022-10-23T02:08:01.095Z,101195.38
2022-10-23T02:10:39.909Z,101198.06
2022-10-23T02:13:13.014Z,101197.16
2022-10-23T02:15:50.252Z,101202.38
2022-10-23T02:18:43.408Z,101193.75
2022-10-23T02:21:31.113Z,101200.66
2022-10-23T02:24:09.322Z,101195.38
2022-10-23T02:26:43.508Z,101192.81
2022-10-23T02:29:19.738Z,101185.88
2022-10-23T02:31:46.127Z,101177.13
2022-10-23T02:34:12.536Z,101186.72
2022-10-23T02:36:39.042Z,101193.69
2022-10-23T02:39:05.744Z,101186.75
2022-10-23T02:41:49.063Z,101183.28
2022-10-23T02:44:37.637Z,101188.41
2022-10-23T02:47:36.533Z,101187.59
2022-10-23T02:50:15.051Z,101198.91
2022-10-23T02:53:10.637Z,101189.41
2022-10-23T02:55:49.071Z,101199.84
2022-10-23T02:58:34.828Z,101195.53
2022-10-23T03:01:15.989Z,101195.53
2022-10-23T03:03:48.456Z,101192.06
2022-10-23T03:06:16.315Z,101194.66
2022-10-23T03:08:49.773Z,101198.13
2022-10-23T03:11:16.076Z,101191.97
2022-10-23T03:13:42.375Z,101196.38
2022-10-23T03:16:08.926Z,101193.81
2022-10-23T03:18:35.478Z,101189.44
2022-10-23T03:21:01.850Z,101192.94
2022-10-23T03:23:28.180Z,101189.53
2022-10-23T03:47:26.537Z,101185.19
2022-10-23T03:49:52.871Z,101179.13
2022-10-23T03:52:19.209Z,101176.59
2022-10-23T03:54:45.625Z,101175.75
2022-10-23T03:57:12.239Z,101168.91
2022-10-23T03:59:38.575Z,101166.38
2022-10-23T04:02:04.973Z,101175.97
2022-10-23T04:04:33.842Z,101176.03
2022-10-23T04:07:00.117Z,101184.78
2022-10-23T04:09:26.520Z,101179.59
2022-10-23T04:11:52.899Z,101180.50
2022-10-23T04:14:19.218Z,101175.28
2022-10-23T04:16:45.531Z,101169.25
2022-10-23T04:19:11.868Z,101171.06
2022-10-23T04:21:38.228Z,101172.81
2022-10-23T04:24:04.931Z,101168.50
2022-10-23T04:26:31.227Z,101164.16
2022-10-23T04:28:57.602Z,101173.69
2022-10-23T04:31:23.958Z,101166.00
2022-10-23T04:33:50.372Z,101167.78
2022-10-23T04:36:16.788Z,101171.28
2022-10-23T04:38:43.315Z,101152.19
2022-10-23T04:41:09.982Z,101158.34
2022-10-23T04:43:36.949Z,101155.69
2022-10-23T04:46:03.574Z,101151.41
2022-10-23T04:48:30.307Z,101148.81
2022-10-23T04:50:58.412Z,101148.00
2022-10-23T04:53:25.913Z,101136.75
2022-10-23T04:55:54.493Z,101134.13
2022-10-23T04:58:21.380Z,101131.59
2022-10-23T05:00:48.915Z,101133.38
2022-10-23T05:03:16.510Z,101123.84
2022-10-23T05:05:43.332Z,101130.84
2022-10-23T05:08:14.233Z,101136.94
2022-10-23T05:10:43.545Z,101130.03
2022-10-23T05:13:09.912Z,101133.50
2022-10-23T05:15:36.219Z,101128.25
2022-10-23T05:18:11.384Z,101128.25
2022-10-23T05:20:39.108Z,101127.41
2022-10-23T05:23:09.464Z,101130.03
2022-10-23T05:25:36.487Z,101130.97
2022-10-23T05:28:02.951Z,101124.97
2022-10-23T05:30:29.429Z,101135.41
2022-10-23T05:32:55.860Z,101136.25
2022-10-23T05:35:23.426Z,101134.50
2022-10-23T05:37:52.382Z,101125.78
2022-10-23T05:40:19.192Z,101129.31
2022-10-23T05:42:45.801Z,101116.31
2022-10-23T05:45:12.469Z,101120.63
2022-10-23T05:47:38.864Z,101126.72
2022-10-23T05:50:05.555Z,101121.56
2022-10-23T05:52:31.883Z,101116.38
2022-10-23T05:54:58.171Z,101122.47
2022-10-23T05:57:24.483Z,101124.19
2022-10-23T05:59:50.833Z,101129.38
2022-10-23T06:02:17.199Z,101132.00
2022-10-23T06:04:43.584Z,101131.16
2022-10-23T06:07:09.910Z,101136.31
2022-10-23T06:09:36.277Z,101135.47
2022-10-23T06:12:02.890Z,101140.69
2022-10-23T06:14:29.162Z,101142.44
2022-10-23T06:16:55.556Z,101145.88
2022-10-23T06:19:21.929Z,101149.31
2022-10-23T06:21:48.365Z,101148.41
2022-10-23T06:24:14.764Z,101145.03
2022-10-23T06:26:41.244Z,101143.25
2022-10-23T06:29:07.931Z,101147.59
2022-10-23T06:31:34.303Z,101154.56
2022-10-23T06:34:00.704Z,101154.53
2022-10-23T06:36:27.673Z,101152.78
2022-10-23T06:38:56.373Z,101148.44
2022-10-23T06:41:23.119Z,101146.69
2022-10-23T06:43:51.031Z,101148.41
2022-10-23T06:46:18.963Z,101154.44
2022-10-23T06:48:45.315Z,101150.13
2022-10-23T06:51:13.987Z,101151.81
2022-10-23T06:53:40.699Z,101150.09
2022-10-23T06:56:08.127Z,101143.97
2022-10-23T06:58:35.895Z,101137.84
2022-10-23T07:01:05.078Z,101137.00
2022-10-23T07:03:31.912Z,101136.06
2022-10-23T07:06:03.105Z,101138.63
2022-10-23T07:08:29.556Z,101138.56
2022-10-23T07:10:56.715Z,101143.75
2022-10-23T07:13:24.816Z,101147.97
2022-10-23T07:15:51.505Z,101137.50
2022-10-23T07:18:19.348Z,101143.53
2022-10-23T07:20:49.232Z,101146.91
2022-10-23T07:23:16.270Z,101147.63
2022-10-23T07:25:42.998Z,101146.72
2022-10-23T07:28:10.557Z,101145.84
2022-10-23T07:30:36.981Z,101143.16
2022-10-23T07:33:03.485Z,101151.88
2022-10-23T07:35:32.983Z,101148.34
2022-10-23T07:38:02.188Z,101144.81
2022-10-23T07:40:28.616Z,101150.72
2022-10-23T07:42:56.590Z,101143.63
2022-10-23T07:45:23.037Z,101148.84
2022-10-23T07:47:52.564Z,101144.31
2022-10-23T07:50:19.310Z,101150.31
2022-10-23T07:52:47.315Z,101142.41
2022-10-23T07:55:14.719Z,101141.44
2022-10-23T07:57:41.147Z,101145.56
2022-10-23T08:00:08.026Z,101144.66
2022-10-23T08:02:36.390Z,101138.44
2022-10-23T08:05:03.186Z,101139.31
2022-10-23T08:07:29.566Z,101145.22
2022-10-23T08:09:55.960Z,101135.53
2022-10-23T08:12:22.359Z,101140.69
2022-10-23T08:14:48.675Z,101139.78
2022-10-23T08:17:15.118Z,101126.84
2022-10-23T08:19:46.210Z,101125.09
2022-10-23T08:22:13.088Z,101122.19
2022-10-23T08:24:39.420Z,101116.06
2022-10-23T08:27:05.794Z,101123.00
2022-10-23T08:29:32.279Z,101121.16
2022-10-23T08:31:58.638Z,101119.25
2022-10-23T08:34:25.150Z,101119.06
2022-10-23T08:36:51.538Z,101124.75
2022-10-23T08:39:17.898Z,101125.38
2022-10-23T08:41:49.995Z,101121.00
2022-10-23T08:44:30.615Z,101112.09
2022-10-23T08:47:19.530Z,101112.75
2022-10-23T08:49:55.555Z,101109.41
2022-10-23T08:52:45.120Z,101105.88
2022-10-23T08:55:20.541Z,101109.84
2022-10-23T08:58:05.667Z,101099.13
2022-10-23T09:00:32.702Z,101114.13
2022-10-23T09:03:02.989Z,101109.59
2022-10-23T09:05:37.202Z,101099.75
2022-10-23T09:08:24.536Z,101098.47
2022-10-23T09:11:05.020Z,101090.59
2022-10-23T09:13:55.018Z,101092.22
2022-10-23T09:16:43.154Z,101085.84
2022-10-23T09:19:19.078Z,101086.53
2022-10-23T09:21:49.863Z,101083.69
2022-10-23T09:24:19.397Z,101076.53
2022-10-23T09:26:51.143Z,101070.25
2022-10-23T09:29:32.702Z,101074.69
2022-10-23T09:32:01.652Z,101069.38
2022-10-23T09:34:30.939Z,101072.56
2022-10-23T09:37:03.922Z,101063.94
2022-10-23T09:39:36.023Z,101065.31
2022-10-23T09:42:20.685Z,101055.38
2022-10-23T09:44:49.953Z,101054.44
2022-10-23T09:47:20.624Z,101061.31
2022-10-23T09:49:49.675Z,101068.16
2022-10-23T09:52:16.613Z,101060.03
2022-10-23T09:54:53.931Z,101060.06
2022-10-23T09:57:38.163Z,101068.75
2022-10-23T10:00:26.552Z,101065.94
2022-10-23T10:03:02.536Z,101069.31
2022-10-23T10:05:37.414Z,101070.31
2022-10-23T10:08:14.269Z,101073.72
2022-10-23T10:11:27.567Z,101070.72
2022-10-23T10:14:15.669Z,101061.06
2022-10-23T10:17:04.768Z,101059.38
2022-10-23T10:19:48.282Z,101057.22
2022-10-23T10:22:42.514Z,101048.97
2022-10-23T10:25:33.981Z,101055.06
2022-10-23T10:28:00.304Z,101048.22
2022-10-23T10:30:36.689Z,101047.38
2022-10-23T10:33:14.854Z,101038.19
2022-10-23T10:35:46.027Z,101030.78
2022-10-23T10:38:34.901Z,101030.28
2022-10-23T10:41:04.585Z,101015.63
2022-10-23T10:43:54.785Z,101020.88
2022-10-23T10:46:46.662Z,101019.53
2022-10-23T10:49:19.299Z,101018.88
2022-10-23T10:52:08.059Z,101002.25
2022-10-23T10:54:34.375Z,100994.03
2022-10-23T10:57:05.231Z,101004.84
2022-10-23T10:59:38.131Z,100999.38
2022-10-23T11:02:33.723Z,100989.28
2022-10-23T11:05:14.288Z,100983.75
2022-10-23T11:07:52.413Z,100979.44
2022-10-23T11:10:19.994Z,100977.53
2022-10-23T11:12:47.915Z,100977.41
2022-10-23T11:15:21.819Z,100968.00
2022-10-23T11:17:53.568Z,100965.09
2022-10-23T11:20:26.631Z,100954.28
2022-10-23T11:23:09.642Z,100954.09
2022-10-23T11:25:52.532Z,100959.56
2022-10-23T11:28:27.704Z,100965.88
2022-10-23T11:31:11.725Z,100963.75
2022-10-23T11:33:57.044Z,100948.63
2022-10-23T11:36:44.312Z,100943.25
2022-10-23T11:39:22.808Z,100925.72
2022-10-23T11:41:53.032Z,100925.09
2022-10-23T11:44:44.581Z,100926.53
2022-10-23T11:47:31.295Z,100924.03
2022-10-23T11:50:13.514Z,100922.38
2022-10-23T11:53:13.287Z,100923.31
2022-10-23T11:55:41.958Z,100906.34
2022-10-23T11:58:20.225Z,100903.72
2022-10-23T12:01:24.163Z,100894.84
2022-10-23T12:04:13.773Z,100891.22
2022-10-23T12:06:44.509Z,100897.13
2022-10-23T12:09:40.732Z,100885.06
2022-10-23T12:12:06.966Z,100865.69
2022-10-23T12:14:40.649Z,100869.81
2022-10-23T12:17:22.223Z,100870.78
2022-10-23T12:20:19.157Z,100864.28
2022-10-23T12:22:58.441Z,100855.47
2022-10-23T12:25:37.668Z,100857.25
2022-10-23T12:28:30.711Z,100862.72
2022-10-23T12:31:28.008Z,100855.31
2022-10-23T12:34:31.708Z,100857.38
2022-10-23T12:37:32.186Z,100853.22
2022-10-23T12:39:59.340Z,100845.25
2022-10-23T12:42:28.343Z,100838.16
2022-10-23T12:45:10.403Z,100832.09
2022-10-23T12:50:03.497Z,100823.34
2022-10-23T12:52:29.842Z,100822.16
2022-10-23T12:54:56.177Z,100815.03
2022-10-23T12:57:23.798Z,100808.00
2022-10-23T12:59:53.386Z,100807.19
2022-10-23T13:02:28.902Z,100805.00
2022-10-23T13:04:58.132Z,100798.50
2022-10-23T13:07:31.502Z,100788.03
2022-10-23T13:09:58.827Z,100786.50
2022-10-23T13:12:31.372Z,100778.50
2022-10-23T13:15:07.894Z,100771.41
2022-10-23T13:17:36.988Z,100756.56
2022-10-23T13:20:18.579Z,100752.06
2022-10-23T13:22:47.712Z,100756.69
2022-10-23T13:25:26.440Z,100753.38
2022-10-23T13:28:11.471Z,100749.13
2022-10-23T13:30:42.607Z,100745.66
2022-10-23T13:33:21.251Z,100736.78
2022-10-23T13:36:21.223Z,100729.03
2022-10-23T13:38:59.384Z,100720.72
2022-10-23T13:41:27.463Z,100725.50
2022-10-23T13:43:53.869Z,100717.91
2022-10-23T13:46:23.049Z,100714.25
2022-10-23T13:48:49.408Z,100707.47
2022-10-23T13:51:27.482Z,100698.13
2022-10-23T13:53:54.933Z,100702.38
2022-10-23T13:56:23.531Z,100700.44
2022-10-23T13:58:50.556Z,100700.63
2022-10-23T14:01:20.139Z,100687.94
2022-10-23T14:03:47.517Z,100682.75
2022-10-23T14:06:13.910Z,100675.63
2022-10-23T14:08:40.376Z,100670.09
2022-10-23T14:11:07.204Z,100670.56
2022-10-23T14:13:33.551Z,100669.69
2022-10-23T14:15:59.881Z,100664.38
2022-10-23T14:18:26.180Z,100667.72
2022-10-23T14:20:52.656Z,100672.13
2022-10-23T14:23:18.948Z,100668.66
2022-10-23T14:25:45.246Z,100674.03
2022-10-23T14:28:11.535Z,100671.56
2022-10-23T14:30:37.860Z,100671.69
2022-10-23T14:33:04.721Z,100670.09
2022-10-23T14:35:31.045Z,100664.38
2022-10-23T14:37:58.408Z,100661.91
2022-10-23T14:40:25.313Z,100661.75
2022-10-23T14:42:51.680Z,100661.66
2022-10-23T14:45:18.087Z,100666.91
2022-10-23T14:47:44.828Z,100665.09
2022-10-23T14:50:13.058Z,100666.91
2022-10-23T14:52:39.377Z,100665.22
2022-10-23T14:55:06.028Z,100663.84
2022-10-23T14:57:32.424Z,100666.88
2022-10-23T14:59:58.709Z,100662.66
2022-10-23T15:02:25.024Z,100650.56
2022-10-23T15:04:51.349Z,100645.22
2022-10-23T15:07:17.686Z,100649.59
2022-10-23T15:09:43.983Z,100648.03
2022-10-23T15:12:10.694Z,100644.44
2022-10-23T15:14:37.187Z,100643.81
2022-10-23T15:17:04.074Z,100643.97
2022-10-23T15:19:30.432Z,100650.13
2022-10-23T15:21:56.903Z,100638.84
2022-10-23T15:24:23.221Z,100635.28
2022-10-23T15:26:51.498Z,100632.50
2022-10-23T15:29:19.309Z,100643.72
2022-10-23T15:31:53.594Z,100642.25
2022-10-23T15:34:25.769Z,100632.78
2022-10-23T15:36:52.860Z,100631.47
2022-10-23T15:39:22.351Z,100616.56
2022-10-23T15:41:51.444Z,100612.31
2022-10-23T15:44:19.861Z,100598.38
2022-10-23T15:46:48.540Z,100596.72
2022-10-23T15:49:15.477Z,100579.31
2022-10-23T15:51:42.979Z,100583.00
2022-10-23T15:54:13.029Z,100583.84
2022-10-23T15:56:39.425Z,100595.38
2022-10-23T15:59:05.763Z,100601.50
2022-10-23T16:01:32.126Z,100598.00
2022-10-23T16:03:58.580Z,100591.97
2022-10-23T16:06:25.057Z,100598.22
2022-10-23T16:08:51.488Z,100594.59
2022-10-23T16:11:21.173Z,100593.06
2022-10-23T16:13:47.583Z,100587.84
2022-10-23T16:16:14.205Z,100591.47
2022-10-23T16:18:40.875Z,100573.91
2022-10-23T16:21:07.779Z,100559.03
2022-10-23T16:23:34.517Z,100532.81
2022-10-23T16:26:05.152Z,100522.16
2022-10-23T16:28:32.143Z,100514.41
2022-10-23T16:30:59.031Z,100510.06
2022-10-23T16:33:25.444Z,100510.91
2022-10-23T16:35:51.796Z,100507.44
2022-10-23T16:38:18.170Z,100517.81
2022-10-23T16:40:50.934Z,100517.56
2022-10-23T16:43:17.273Z,100510.78
2022-10-23T16:45:43.646Z,100505.44
2022-10-23T16:48:09.986Z,100506.31
2022-10-23T16:53:10.455Z,100504.53
2022-10-23T16:55:40.543Z,100513.03
2022-10-23T16:58:06.947Z,100519.31
2022-10-23T17:00:34.958Z,100524.44
2022-10-23T17:03:03.207Z,100529.91
2022-10-23T17:05:34.040Z,100520.19
2022-10-23T17:08:00.736Z,100522.81
2022-10-23T17:10:27.522Z,100523.59
2022-10-23T17:12:53.899Z,100523.66
2022-10-23T17:15:20.785Z,100501.00
2022-10-23T17:17:47.133Z,100509.66
2022-10-23T17:20:13.486Z,100501.84
2022-10-23T17:22:39.830Z,100485.25
2022-10-23T17:25:06.931Z,100483.47
2022-10-23T17:27:33.237Z,100479.28
2022-10-23T17:29:59.581Z,100481.22
2022-10-23T17:32:27.570Z,100477.69
2022-10-23T17:34:54.050Z,100481.94
2022-10-23T17:37:20.450Z,100480.34
2022-10-23T17:39:46.815Z,100473.66
2022-10-23T17:42:13.160Z,100470.25
2022-10-23T17:44:39.559Z,100475.28
2022-10-23T17:47:05.933Z,100471.06
2022-10-23T17:49:32.342Z,100456.19
2022-10-23T17:51:58.766Z,100461.44
2022-10-23T17:54:26.609Z,100444.84
2022-10-23T17:56:53.053Z,100439.72
2022-10-23T17:59:19.682Z,100433.66
2022-10-23T18:01:48.519Z,100434.59
2022-10-23T18:04:17.782Z,100423.06
2022-10-23T18:06:49.583Z,100418.75
2022-10-23T18:09:16.408Z,100419.91
2022-10-23T18:11:48.234Z,100410.44
2022-10-23T18:14:16.279Z,100411.06
2022-10-23T18:16:45.378Z,100407.47
2022-10-23T18:19:11.848Z,100398.84
2022-10-23T18:21:40.039Z,100392.88
2022-10-23T18:24:07.285Z,100401.56
2022-10-23T18:26:34.977Z,100403.34
2022-10-23T18:29:04.086Z,100413.00
2022-10-23T18:31:30.514Z,100432.16
2022-10-23T18:34:03.990Z,100431.41
2022-10-23T18:36:33.148Z,100431.25
2022-10-23T18:38:59.508Z,100438.25
2022-10-23T18:41:26.457Z,100431.34
2022-10-23T18:43:54.262Z,100430.41
2022-10-23T18:46:21.433Z,100414.81
2022-10-23T18:48:50.798Z,100409.59
2022-10-23T18:51:24.659Z,100409.81
2022-10-23T18:53:51.417Z,100413.38
2022-10-23T18:56:22.631Z,100412.56
2022-10-23T18:58:54.860Z,100422.13
2022-10-23T19:01:22.916Z,100420.50
2022-10-23T19:03:49.613Z,100417.19
2022-10-23T19:06:16.966Z,100423.09
2022-10-23T19:08:49.427Z,100417.88
2022-10-23T19:11:17.986Z,100427.47
2022-10-23T19:13:46.985Z,100424.69
2022-10-23T19:16:28.824Z,100423.03
2022-10-23T19:33:04.334Z,100420.31
2022-10-23T19:35:37.538Z,100415.00
2022-10-23T19:38:04.653Z,100416.81
2022-10-23T19:40:31.718Z,100417.75
2022-10-23T19:42:58.464Z,100417.75
2022-10-23T19:45:27.184Z,100418.84
2022-10-23T19:47:54.471Z,100410.91
2022-10-23T19:50:24.584Z,100407.38
2022-10-23T19:52:51.465Z,100419.44
2022-10-23T19:55:18.044Z,100416.03
2022-10-23T19:57:47.786Z,100422.06
2022-10-23T20:00:14.614Z,100426.38
2022-10-23T20:02:42.280Z,100433.47
2022-10-23T20:05:29.816Z,100439.38
2022-10-23T20:08:04.468Z,100450.91
2022-10-23T20:13:26.518Z,100429.94
2022-10-23T20:15:53.062Z,100443.09
2022-10-23T20:18:19.784Z,100443.16
2022-10-23T20:20:46.317Z,100443.97
2022-10-23T20:23:18.210Z,100446.59
2022-10-23T20:25:47.688Z,100444.13
2022-10-23T20:28:16.456Z,100444.13
2022-10-23T20:30:47.842Z,100438.06
2022-10-23T20:57:09.792Z,100389.78
2022-10-23T21:02:32.838Z,100374.56
2022-10-23T21:04:59.674Z,100354.56
2022-10-23T21:07:26.929Z,100320.50
2022-10-23T21:09:57.770Z,100289.13
2022-10-23T21:12:26.347Z,100255.22
2022-10-23T21:15:00.920Z,100298.00
2022-10-23T21:17:29.578Z,100319.84
2022-10-23T21:34:07.852Z,100316.34
2022-10-23T21:37:11.476Z,100324.84
2022-10-23T21:54:40.374Z,100303.19
2022-10-23T21:57:13.928Z,100292.56
2022-10-23T21:59:43.178Z,100250.47
2022-10-23T22:02:19.396Z,100237.31
2022-10-23T22:04:49.126Z,100217.66
2022-10-23T22:07:15.799Z,100214.00
2022-10-23T22:09:43.303Z,100178.25
2022-10-23T22:12:11.405Z,100180.00
2022-10-23T22:14:40.746Z,100192.84
2022-10-23T22:17:08.185Z,100198.84
2022-10-23T22:19:34.658Z,100152.13
2022-10-23T22:22:01.579Z,100219.19
2022-10-23T22:24:28.058Z,100230.94
2022-10-23T23:01:34.914Z,100242.78
2022-10-23T23:04:13.748Z,100242.06
2022-10-23T23:39:48.744Z,100306.06
2022-10-23T23:42:15.137Z,100313.38
2022-10-23T23:44:55.812Z,100313.38
2022-10-23T23:50:20.380Z,100328.25
2022-10-23T23:52:59.598Z,100335.50
2022-10-23T23:55:27.218Z,100331.41
2022-10-23T23:57:55.371Z,100340.28
